createdAt,value
2022-11-20T00:00:57.365Z,-4.30
2022-11-20T00:01:59.199Z,-4.30
2022-11-20T00:03:00.945Z,-4.20
2022-11-20T00:04:02.821Z,-4.30
2022-11-20T00:05:04.849Z,-4.30
2022-11-20T00:06:08.641Z,-4.20
2022-11-20T00:07:10.473Z,-4.20
2022-11-20T00:08:12.478Z,-4.20
2022-11-20T00:09:14.192Z,-4.20
2022-11-20T00:10:16.519Z,-4.10
2022-11-20T00:11:23.113Z,-4.10
2022-11-20T00:12:24.892Z,-4.20
2022-11-20T00:13:26.614Z,-4.20
2022-11-20T00:14:28.429Z,-4.20
2022-11-20T00:15:30.152Z,-4.20
2022-11-20T00:16:33.795Z,-4.30
2022-11-20T00:17:35.561Z,-4.30
2022-11-20T00:18:37.899Z,-4.30
2022-11-20T00:19:39.650Z,-4.40
2022-11-20T00:20:41.448Z,-4.40
2022-11-20T00:21:43.178Z,-4.50
2022-11-20T00:22:44.935Z,-4.40
2022-11-20T00:23:47.001Z,-4.40
2022-11-20T00:24:48.720Z,-4.40
2022-11-20T00:25:50.446Z,-4.40
2022-11-20T00:26:52.181Z,-4.50
2022-11-20T00:27:53.894Z,-4.50
2022-11-20T00:29:02.020Z,-4.50
2022-11-20T00:30:04.750Z,-4.50
2022-11-20T00:31:11.948Z,-4.40
2022-11-20T00:32:13.651Z,-4.50
2022-11-20T00:33:15.337Z,-4.50
2022-11-20T00:34:17.114Z,-4.50
2022-11-20T00:35:18.837Z,-4.50
2022-11-20T00:36:23.278Z,-4.60
2022-11-20T00:37:25.013Z,-4.50
2022-11-20T00:38:26.718Z,-4.50
2022-11-20T00:39:28.478Z,-4.50
2022-11-20T00:40:30.239Z,-4.50
2022-11-20T00:41:32.002Z,-4.50
2022-11-20T00:42:33.919Z,-4.40
2022-11-20T00:43:36.289Z,-4.50
2022-11-20T00:44:38.043Z,-4.40
2022-11-20T00:45:39.740Z,-4.50
2022-11-20T00:46:41.477Z,-4.40
2022-11-20T00:47:43.195Z,-4.40
2022-11-20T00:48:45.750Z,-4.40
2022-11-20T00:49:47.550Z,-4.40
2022-11-20T00:50:49.270Z,-4.50
2022-11-20T00:51:51.100Z,-4.50
2022-11-20T00:52:52.872Z,-4.50
2022-11-20T00:53:57.412Z,-4.50
2022-11-20T00:54:59.153Z,-4.50
2022-11-20T00:56:03.771Z,-4.50
2022-11-20T00:57:05.664Z,-4.50
2022-11-20T00:58:12.994Z,-4.50
2022-11-20T00:59:15.985Z,-4.50
2022-11-20T01:00:17.862Z,-4.50
2022-11-20T01:01:25.919Z,-4.50
2022-11-20T01:02:27.691Z,-4.50
2022-11-20T01:03:38.857Z,-4.50
2022-11-20T01:04:40.564Z,-4.60
2022-11-20T01:05:42.302Z,-4.60
2022-11-20T01:06:44.104Z,-4.70
2022-11-20T01:07:45.860Z,-4.70
2022-11-20T01:08:47.996Z,-4.70
2022-11-20T01:09:49.733Z,-4.70
2022-11-20T01:10:51.446Z,-4.80
2022-11-20T01:11:53.182Z,-4.80
2022-11-20T01:13:14.866Z,-4.80
2022-11-20T01:14:19.634Z,-4.80
2022-11-20T01:15:21.434Z,-4.80
2022-11-20T01:16:24.658Z,-4.80
2022-11-20T01:17:26.382Z,-4.80
2022-11-20T01:18:28.097Z,-4.90
2022-11-20T01:19:29.845Z,-4.90
2022-11-20T01:20:35.016Z,-4.90
2022-11-20T01:21:39.234Z,-4.80
2022-11-20T01:22:40.974Z,-4.80
2022-11-20T01:23:44.492Z,-4.80
2022-11-20T01:24:46.200Z,-4.80
2022-11-20T01:25:47.917Z,-4.80
2022-11-20T01:26:51.764Z,-4.80
2022-11-20T01:27:53.563Z,-4.80
2022-11-20T01:28:56.799Z,-4.80
2022-11-20T01:30:01.289Z,-4.80
2022-11-20T01:31:15.791Z,-4.80
2022-11-20T01:32:17.840Z,-4.70
2022-11-20T01:33:19.557Z,-4.80
2022-11-20T01:34:23.292Z,-4.90
2022-11-20T01:35:25.036Z,-4.80
2022-11-20T01:36:30.290Z,-4.80
2022-11-20T01:37:32.032Z,-4.80
2022-11-20T01:38:33.967Z,-4.80
2022-11-20T01:39:35.705Z,-4.80
2022-11-20T01:40:37.662Z,-4.80
2022-11-20T01:41:58.366Z,-4.80
2022-11-20T01:43:24.292Z,-4.80
2022-11-20T01:44:49.752Z,-4.80
2022-11-20T01:46:23.639Z,-4.70
2022-11-20T01:47:34.429Z,-4.70
2022-11-20T01:49:06.552Z,-4.70
2022-11-20T01:50:19.185Z,-4.70
2022-11-20T01:51:27.067Z,-4.80
2022-11-20T01:52:37.468Z,-4.80
2022-11-20T01:53:39.751Z,-4.90
2022-11-20T01:54:49.355Z,-4.90
2022-11-20T01:55:54.042Z,-4.90
2022-11-20T01:56:58.476Z,-4.90
2022-11-20T01:58:01.673Z,-4.90
2022-11-20T01:59:06.969Z,-4.90
2022-11-20T02:00:15.412Z,-4.90
2022-11-20T02:01:17.292Z,-4.90
2022-11-20T02:02:19.104Z,-4.90
2022-11-20T02:03:21.513Z,-4.80
2022-11-20T02:04:24.033Z,-4.90
2022-11-20T02:05:37.997Z,-4.90
2022-11-20T02:06:54.656Z,-4.90
2022-11-20T02:07:58.756Z,-4.90
2022-11-20T02:09:00.524Z,-4.90
2022-11-20T02:10:02.677Z,-4.90
2022-11-20T02:11:04.468Z,-4.90
2022-11-20T02:12:26.767Z,-4.90
2022-11-20T02:13:44.088Z,-4.80
2022-11-20T02:14:45.855Z,-4.80
2022-11-20T02:15:48.202Z,-4.90
2022-11-20T02:16:50.857Z,-4.90
2022-11-20T02:17:52.790Z,-4.90
2022-11-20T02:19:02.182Z,-4.80
2022-11-20T02:20:05.371Z,-4.90
2022-11-20T02:21:31.357Z,-4.90
2022-11-20T02:22:40.385Z,-4.80
2022-11-20T02:24:02.198Z,-4.80
2022-11-20T02:25:04.891Z,-4.70
2022-11-20T02:26:12.052Z,-4.70
2022-11-20T02:27:16.021Z,-4.70
2022-11-20T02:28:19.284Z,-4.70
2022-11-20T02:29:27.650Z,-4.70
2022-11-20T02:30:29.420Z,-4.70
2022-11-20T02:31:37.588Z,-4.80
2022-11-20T02:32:40.762Z,-4.70
2022-11-20T02:33:42.478Z,-4.80
2022-11-20T02:34:44.212Z,-4.80
2022-11-20T02:35:47.948Z,-4.80
2022-11-20T02:36:52.189Z,-4.80
2022-11-20T02:37:59.442Z,-4.80
2022-11-20T02:39:01.254Z,-4.80
2022-11-20T02:40:03.066Z,-4.80
2022-11-20T02:41:04.875Z,-4.80
2022-11-20T02:42:06.810Z,-4.80
2022-11-20T02:43:09.435Z,-4.80
2022-11-20T02:44:11.160Z,-4.80
2022-11-20T02:45:13.124Z,-4.80
2022-11-20T02:46:15.511Z,-4.90
2022-11-20T02:47:17.259Z,-4.90
2022-11-20T02:48:19.047Z,-4.90
2022-11-20T02:49:21.089Z,-4.90
2022-11-20T02:50:23.129Z,-5.00
2022-11-20T02:51:25.258Z,-5.00
2022-11-20T02:52:27.213Z,-5.00
2022-11-20T02:53:29.079Z,-5.00
2022-11-20T02:54:30.823Z,-5.00
2022-11-20T02:55:32.735Z,-5.00
2022-11-20T02:56:34.645Z,-5.00
2022-11-20T02:57:36.414Z,-5.00
2022-11-20T02:58:38.536Z,-5.10
2022-11-20T02:59:40.336Z,-5.00
2022-11-20T03:00:42.089Z,-5.10
2022-11-20T03:01:43.996Z,-5.10
2022-11-20T03:02:46.136Z,-5.10
2022-11-20T03:03:49.541Z,-5.10
2022-11-20T03:04:51.288Z,-5.00
2022-11-20T03:05:53.040Z,-5.10
2022-11-20T03:06:54.774Z,-5.10
2022-11-20T03:07:56.523Z,-5.10
2022-11-20T03:08:58.256Z,-5.10
2022-11-20T03:09:59.987Z,-5.10
2022-11-20T03:11:07.161Z,-5.00
2022-11-20T03:12:08.992Z,-5.00
2022-11-20T03:13:10.788Z,-5.00
2022-11-20T03:14:12.536Z,-5.00
2022-11-20T03:15:14.492Z,-5.10
2022-11-20T03:16:22.473Z,-5.10
2022-11-20T03:17:24.176Z,-5.00
2022-11-20T03:18:28.469Z,-5.00
2022-11-20T03:19:30.392Z,-5.00
2022-11-20T03:20:34.833Z,-4.90
2022-11-20T03:21:36.812Z,-4.90
2022-11-20T03:22:38.565Z,-4.90
2022-11-20T03:23:40.480Z,-4.90
2022-11-20T03:24:42.206Z,-4.90
2022-11-20T03:25:43.955Z,-4.90
2022-11-20T03:26:45.749Z,-4.90
2022-11-20T03:27:47.521Z,-4.90
2022-11-20T03:28:57.557Z,-4.90
2022-11-20T03:29:59.244Z,-4.90
2022-11-20T03:31:10.903Z,-4.90
2022-11-20T03:32:12.608Z,-4.90
2022-11-20T03:33:14.331Z,-4.90
2022-11-20T03:34:16.128Z,-4.90
2022-11-20T03:35:18.840Z,-4.90
2022-11-20T03:36:21.560Z,-4.90
2022-11-20T03:37:23.250Z,-5.00
2022-11-20T03:38:24.965Z,-4.90
2022-11-20T03:39:27.432Z,-4.90
2022-11-20T03:40:29.208Z,-4.90
2022-11-20T03:41:32.580Z,-5.00
2022-11-20T03:42:46.274Z,-5.00
2022-11-20T03:43:52.549Z,-4.90
2022-11-20T03:44:54.252Z,-4.90
2022-11-20T03:45:56.369Z,-4.90
2022-11-20T03:46:58.070Z,-4.90
2022-11-20T03:47:59.845Z,-4.90
2022-11-20T03:49:01.840Z,-4.90
2022-11-20T03:50:04.221Z,-4.90
2022-11-20T03:51:14.777Z,-4.90
2022-11-20T03:52:16.568Z,-4.80
2022-11-20T03:53:20.802Z,-4.80
2022-11-20T03:54:22.618Z,-4.80
2022-11-20T03:55:24.340Z,-4.80
2022-11-20T03:56:35.724Z,-4.80
2022-11-20T03:57:37.544Z,-4.80
2022-11-20T03:58:40.623Z,-4.90
2022-11-20T03:59:42.333Z,-4.90
2022-11-20T04:00:44.226Z,-4.90
2022-11-20T04:01:49.432Z,-4.90
2022-11-20T04:02:51.481Z,-4.90
2022-11-20T04:03:55.028Z,-4.90
2022-11-20T04:04:56.761Z,-4.90
2022-11-20T04:06:12.572Z,-4.90
2022-11-20T04:07:14.397Z,-4.90
2022-11-20T04:08:16.228Z,-4.90
2022-11-20T04:09:18.018Z,-4.90
2022-11-20T04:10:19.915Z,-4.90
2022-11-20T04:11:24.618Z,-4.90
2022-11-20T04:12:26.353Z,-4.90
2022-11-20T04:13:28.086Z,-4.90
2022-11-20T04:14:29.852Z,-4.90
2022-11-20T04:15:35.697Z,-4.90
2022-11-20T04:16:39.997Z,-4.90
2022-11-20T04:17:41.819Z,-4.90
2022-11-20T04:18:44.349Z,-4.90
2022-11-20T04:19:46.165Z,-4.90
2022-11-20T04:20:48.791Z,-4.90
2022-11-20T04:21:50.514Z,-4.90
2022-11-20T04:22:55.556Z,-4.90
2022-11-20T04:23:57.832Z,-4.80
2022-11-20T04:24:59.571Z,-4.80
2022-11-20T04:26:10.332Z,-4.80
2022-11-20T04:27:12.051Z,-4.90
2022-11-20T04:28:13.948Z,-4.90
2022-11-20T04:29:15.770Z,-4.90
2022-11-20T04:30:17.713Z,-4.90
2022-11-20T04:31:21.984Z,-4.90
2022-11-20T04:32:23.737Z,-4.90
2022-11-20T04:33:27.054Z,-4.90
2022-11-20T04:34:29.918Z,-4.90
2022-11-20T04:35:34.619Z,-4.90
2022-11-20T04:36:36.346Z,-4.90
2022-11-20T04:37:38.061Z,-4.90
2022-11-20T04:38:40.488Z,-4.90
2022-11-20T04:39:42.364Z,-4.80
2022-11-20T04:40:44.118Z,-4.80
2022-11-20T04:41:45.862Z,-4.80
2022-11-20T04:42:47.624Z,-4.80
2022-11-20T04:43:51.131Z,-4.80
2022-11-20T04:44:52.933Z,-4.70
2022-11-20T04:45:55.765Z,-4.70
2022-11-20T04:46:57.472Z,-4.70
2022-11-20T04:47:59.207Z,-4.80
2022-11-20T04:49:00.941Z,-4.80
2022-11-20T04:50:02.841Z,-4.80
2022-11-20T04:51:05.383Z,-4.80
2022-11-20T04:52:07.140Z,-4.80
2022-11-20T04:53:08.860Z,-4.80
2022-11-20T04:54:12.147Z,-4.90
2022-11-20T04:55:14.413Z,-4.90
2022-11-20T04:56:16.709Z,-4.90
2022-11-20T04:57:18.458Z,-4.90
2022-11-20T04:58:20.224Z,-4.90
2022-11-20T04:59:22.430Z,-4.90
2022-11-20T05:00:24.513Z,-4.90
2022-11-20T05:01:26.562Z,-4.90
2022-11-20T05:02:28.353Z,-4.90
2022-11-20T05:03:30.468Z,-4.90
2022-11-20T05:04:32.179Z,-4.90
2022-11-20T05:05:35.900Z,-4.90
2022-11-20T05:06:37.713Z,-4.90
2022-11-20T05:07:39.462Z,-4.90
2022-11-20T05:08:41.421Z,-4.90
2022-11-20T05:09:43.197Z,-4.90
2022-11-20T05:10:44.932Z,-4.90
2022-11-20T05:11:50.405Z,-4.90
2022-11-20T05:12:53.467Z,-5.00
2022-11-20T05:13:55.769Z,-5.00
2022-11-20T05:14:57.649Z,-5.00
2022-11-20T05:16:04.439Z,-5.00
2022-11-20T05:17:06.418Z,-5.00
2022-11-20T05:18:08.362Z,-5.00
2022-11-20T05:19:10.277Z,-5.00
2022-11-20T05:20:12.455Z,-5.00
2022-11-20T05:21:14.756Z,-5.00
2022-11-20T05:22:16.480Z,-5.00
2022-11-20T05:23:18.207Z,-5.00
2022-11-20T05:24:20.096Z,-5.10
2022-11-20T05:25:21.805Z,-5.10
2022-11-20T05:26:23.796Z,-5.10
2022-11-20T05:27:25.500Z,-5.10
2022-11-20T05:28:29.146Z,-5.10
2022-11-20T05:29:30.898Z,-5.10
2022-11-20T05:30:32.805Z,-5.10
2022-11-20T05:31:34.573Z,-5.10
2022-11-20T05:32:36.283Z,-5.10
2022-11-20T05:33:40.622Z,-5.10
2022-11-20T05:34:42.347Z,-5.10
2022-11-20T05:35:44.377Z,-5.00
2022-11-20T05:36:46.119Z,-5.00
2022-11-20T05:37:47.813Z,-5.00
2022-11-20T05:38:51.027Z,-5.00
2022-11-20T05:39:53.252Z,-5.00
2022-11-20T05:40:55.003Z,-5.00
2022-11-20T05:42:15.134Z,-5.00
2022-11-20T05:43:16.908Z,-5.00
2022-11-20T05:44:18.857Z,-5.00
2022-11-20T05:45:20.564Z,-5.00
2022-11-20T05:46:28.247Z,-5.00
2022-11-20T05:47:35.372Z,-5.00
2022-11-20T05:48:37.877Z,-5.00
2022-11-20T05:49:39.611Z,-5.00
2022-11-20T05:50:41.322Z,-5.00
2022-11-20T05:51:43.055Z,-5.00
2022-11-20T05:52:44.957Z,-5.00
2022-11-20T05:53:48.778Z,-5.10
2022-11-20T05:54:50.835Z,-5.10
2022-11-20T05:56:03.591Z,-5.10
2022-11-20T05:57:05.301Z,-5.10
2022-11-20T05:58:07.070Z,-5.10
2022-11-20T05:59:08.953Z,-5.10
2022-11-20T06:00:11.457Z,-5.10
2022-11-20T06:01:21.742Z,-5.00
2022-11-20T06:02:23.539Z,-5.10
2022-11-20T06:03:25.325Z,-5.00
2022-11-20T06:04:27.087Z,-5.00
2022-11-20T06:05:28.839Z,-5.00
2022-11-20T06:06:30.569Z,-5.10
2022-11-20T06:07:32.487Z,-5.10
2022-11-20T06:08:34.367Z,-5.10
2022-11-20T06:09:36.108Z,-5.10
2022-11-20T06:10:37.809Z,-5.10
2022-11-20T06:11:39.631Z,-5.10
2022-11-20T06:12:41.388Z,-5.10
2022-11-20T06:13:43.735Z,-5.10
2022-11-20T06:14:45.497Z,-5.10
2022-11-20T06:15:51.549Z,-5.10
2022-11-20T06:16:53.308Z,-5.10
2022-11-20T06:17:56.003Z,-5.10
2022-11-20T06:18:57.722Z,-5.00
2022-11-20T06:19:59.484Z,-5.10
2022-11-20T06:21:10.198Z,-5.10
2022-11-20T06:22:12.103Z,-5.10
2022-11-20T06:23:14.485Z,-5.10
2022-11-20T06:24:16.654Z,-5.10
2022-11-20T06:25:18.415Z,-5.10
2022-11-20T06:26:26.362Z,-5.10
2022-11-20T06:27:28.341Z,-5.10
2022-11-20T06:28:30.187Z,-5.10
2022-11-20T06:29:34.104Z,-5.10
2022-11-20T06:30:36.400Z,-5.10
2022-11-20T06:31:38.784Z,-5.10
2022-11-20T06:32:40.559Z,-5.20
2022-11-20T06:33:43.511Z,-5.20
2022-11-20T06:34:45.269Z,-5.20
2022-11-20T06:35:46.982Z,-5.20
2022-11-20T06:36:48.687Z,-5.10
2022-11-20T06:37:50.551Z,-5.20
2022-11-20T06:38:52.403Z,-5.10
2022-11-20T06:39:54.119Z,-5.10
2022-11-20T06:40:56.214Z,-5.10
2022-11-20T06:41:59.249Z,-5.10
2022-11-20T06:43:01.127Z,-5.10
2022-11-20T06:44:05.678Z,-5.10
2022-11-20T06:45:08.273Z,-5.10
2022-11-20T06:46:11.859Z,-5.10
2022-11-20T06:47:13.561Z,-5.10
2022-11-20T06:48:15.306Z,-5.10
2022-11-20T06:49:17.098Z,-5.10
2022-11-20T06:50:18.869Z,-5.10
2022-11-20T06:51:20.698Z,-5.10
2022-11-20T06:52:22.627Z,-5.10
2022-11-20T06:53:24.957Z,-5.10
2022-11-20T06:54:26.770Z,-5.10
2022-11-20T06:55:28.509Z,-5.10
2022-11-20T06:56:30.240Z,-5.10
2022-11-20T06:57:32.046Z,-5.20
2022-11-20T06:58:35.405Z,-5.20
2022-11-20T06:59:37.115Z,-5.20
2022-11-20T07:00:38.968Z,-5.20
2022-11-20T07:01:40.825Z,-5.20
2022-11-20T07:02:42.545Z,-5.20
2022-11-20T07:03:45.204Z,-5.10
2022-11-20T07:04:47.077Z,-5.10
2022-11-20T07:05:48.855Z,-5.10
2022-11-20T07:06:50.547Z,-5.10
2022-11-20T07:07:52.256Z,-5.20
2022-11-20T07:08:53.997Z,-5.10
2022-11-20T07:09:55.756Z,-5.10
2022-11-20T07:11:01.798Z,-5.10
2022-11-20T07:12:03.610Z,-5.10
2022-11-20T07:13:05.797Z,-5.10
2022-11-20T07:14:07.507Z,-5.10
2022-11-20T07:15:09.585Z,-5.00
2022-11-20T07:16:11.302Z,-5.00
2022-11-20T07:17:13.302Z,-5.00
2022-11-20T07:18:15.049Z,-5.00
2022-11-20T07:19:16.745Z,-5.00
2022-11-20T07:20:18.869Z,-5.00
2022-11-20T07:21:20.582Z,-5.00
2022-11-20T07:22:22.676Z,-5.00
2022-11-20T07:23:24.599Z,-4.90
2022-11-20T07:24:26.346Z,-4.90
2022-11-20T07:25:29.525Z,-4.90
2022-11-20T07:26:31.254Z,-4.90
2022-11-20T07:27:33.270Z,-4.80
2022-11-20T07:28:35.869Z,-4.90
2022-11-20T07:29:37.570Z,-4.90
2022-11-20T07:30:39.386Z,-4.90
2022-11-20T07:31:41.164Z,-4.90
2022-11-20T07:32:42.907Z,-4.80
2022-11-20T07:33:44.670Z,-4.80
2022-11-20T07:34:46.627Z,-4.80
2022-11-20T07:35:48.426Z,-4.80
2022-11-20T07:36:50.220Z,-4.70
2022-11-20T07:37:52.164Z,-4.70
2022-11-20T07:38:53.895Z,-4.70
2022-11-20T07:39:55.615Z,-4.70
2022-11-20T07:41:04.469Z,-4.70
2022-11-20T07:42:07.363Z,-4.70
2022-11-20T07:43:10.348Z,-4.60
2022-11-20T07:44:12.522Z,-4.60
2022-11-20T07:45:14.280Z,-4.60
2022-11-20T07:46:16.058Z,-4.60
2022-11-20T07:47:17.796Z,-4.60
2022-11-20T07:48:19.543Z,-4.60
2022-11-20T07:49:21.786Z,-4.60
2022-11-20T07:50:23.831Z,-4.60
2022-11-20T07:51:26.876Z,-4.60
2022-11-20T07:52:29.585Z,-4.60
2022-11-20T07:53:31.335Z,-4.60
2022-11-20T07:54:33.105Z,-4.60
2022-11-20T07:55:34.861Z,-4.60
2022-11-20T07:56:36.614Z,-4.60
2022-11-20T07:57:38.355Z,-4.60
2022-11-20T07:58:40.064Z,-4.60
2022-11-20T07:59:41.845Z,-4.60
2022-11-20T08:00:43.722Z,-4.60
2022-11-20T08:01:45.516Z,-4.60
2022-11-20T08:02:47.237Z,-4.60
2022-11-20T08:03:49.014Z,-4.60
2022-11-20T08:04:50.864Z,-4.60
2022-11-20T08:05:52.850Z,-4.60
2022-11-20T08:06:54.608Z,-4.50
2022-11-20T08:07:56.341Z,-4.50
2022-11-20T08:08:58.151Z,-4.40
2022-11-20T08:09:59.969Z,-4.40
2022-11-20T08:11:20.457Z,-4.40
2022-11-20T08:12:40.920Z,-4.30
2022-11-20T08:14:01.286Z,-4.30
2022-11-20T08:15:04.539Z,-4.20
2022-11-20T08:16:08.934Z,-4.20
2022-11-20T08:17:11.111Z,-4.20
2022-11-20T08:18:30.458Z,-4.10
2022-11-20T08:19:33.799Z,-4.10
2022-11-20T08:20:36.266Z,-4.10
2022-11-20T08:21:38.699Z,-4.10
2022-11-20T08:22:40.470Z,-4.10
2022-11-20T08:23:42.184Z,-4.00
2022-11-20T08:24:43.916Z,-4.00
2022-11-20T08:25:50.971Z,-4.00
2022-11-20T08:26:52.980Z,-4.00
2022-11-20T08:27:59.241Z,-4.00
2022-11-20T08:29:02.250Z,-4.00
2022-11-20T08:30:05.510Z,-4.00
2022-11-20T08:31:07.236Z,-4.00
2022-11-20T08:32:08.962Z,-4.00
2022-11-20T08:33:10.835Z,-4.00
2022-11-20T08:34:17.569Z,-3.90
2022-11-20T08:35:21.693Z,-3.90
2022-11-20T08:36:24.559Z,-3.90
2022-11-20T08:37:26.282Z,-3.90
2022-11-20T08:38:28.049Z,-3.80
2022-11-20T08:39:29.977Z,-3.80
2022-11-20T08:40:32.142Z,-3.80
2022-11-20T08:41:34.186Z,-3.70
2022-11-20T08:42:36.022Z,-3.70
2022-11-20T08:43:37.782Z,-3.70
2022-11-20T08:44:39.565Z,-3.70
2022-11-20T08:45:41.295Z,-3.60
2022-11-20T08:46:44.656Z,-3.60
2022-11-20T08:47:47.028Z,-3.60
2022-11-20T08:48:49.037Z,-3.60
2022-11-20T08:49:50.764Z,-3.60
2022-11-20T08:50:52.478Z,-3.50
2022-11-20T08:51:56.159Z,-3.50
2022-11-20T08:53:03.805Z,-3.50
2022-11-20T08:54:06.191Z,-3.50
2022-11-20T08:55:08.897Z,-3.50
2022-11-20T08:56:11.272Z,-3.50
2022-11-20T08:57:12.967Z,-3.40
2022-11-20T08:58:14.691Z,-3.40
2022-11-20T08:59:31.308Z,-3.40
2022-11-20T09:00:38.326Z,-3.40
2022-11-20T09:01:40.503Z,-3.40
2022-11-20T09:02:42.266Z,-3.30
2022-11-20T09:03:44.009Z,-3.30
2022-11-20T09:04:45.912Z,-3.30
2022-11-20T09:05:47.731Z,-3.20
2022-11-20T09:06:51.954Z,-3.20
2022-11-20T09:07:57.483Z,-3.20
2022-11-20T09:09:03.478Z,-3.20
2022-11-20T09:10:23.516Z,-3.20
2022-11-20T09:11:26.084Z,-3.10
2022-11-20T09:12:27.804Z,-3.10
2022-11-20T09:13:30.290Z,-3.10
2022-11-20T09:14:32.084Z,-3.10
2022-11-20T09:15:34.752Z,-3.10
2022-11-20T09:16:36.595Z,-3.10
2022-11-20T09:17:38.368Z,-3.00
2022-11-20T09:18:40.124Z,-3.00
2022-11-20T09:19:42.494Z,-3.00
2022-11-20T09:20:45.209Z,-3.00
2022-11-20T09:21:47.040Z,-2.90
2022-11-20T09:22:49.267Z,-2.90
2022-11-20T09:23:51.006Z,-2.90
2022-11-20T09:24:52.710Z,-2.90
2022-11-20T09:25:56.700Z,-2.80
2022-11-20T09:26:58.432Z,-2.80
2022-11-20T09:28:00.700Z,-2.80
2022-11-20T09:29:02.454Z,-2.80
2022-11-20T09:30:04.891Z,-2.80
2022-11-20T09:31:11.066Z,-2.80
2022-11-20T09:32:12.879Z,-2.80
2022-11-20T09:33:14.619Z,-2.80
2022-11-20T09:34:16.568Z,-2.70
2022-11-20T09:35:18.900Z,-2.70
2022-11-20T09:36:20.723Z,-2.70
2022-11-20T09:37:22.457Z,-2.70
2022-11-20T09:38:24.221Z,-2.60
2022-11-20T09:39:25.978Z,-2.60
2022-11-20T09:40:30.495Z,-2.60
2022-11-20T09:41:56.488Z,-2.60
2022-11-20T09:43:16.139Z,-2.60
2022-11-20T09:44:28.533Z,-2.50
2022-11-20T09:45:39.698Z,-2.50
2022-11-20T09:46:54.455Z,-2.50
2022-11-20T09:48:08.229Z,-2.40
2022-11-20T09:49:33.930Z,-2.40
2022-11-20T09:51:07.422Z,-2.40
2022-11-20T09:52:12.098Z,-2.30
2022-11-20T09:53:27.585Z,-2.30
2022-11-20T09:54:36.709Z,-2.20
2022-11-20T09:55:39.575Z,-2.20
2022-11-20T09:56:45.896Z,-2.10
2022-11-20T09:57:49.200Z,-2.00
2022-11-20T09:58:54.859Z,-2.00
2022-11-20T10:00:00.382Z,-1.90
2022-11-20T10:01:17.456Z,-1.80
2022-11-20T10:02:25.333Z,-1.70
2022-11-20T10:03:42.876Z,-1.60
2022-11-20T10:04:59.912Z,-1.60
2022-11-20T10:06:03.728Z,-1.50
2022-11-20T10:07:31.834Z,-1.40
2022-11-20T10:08:46.082Z,-1.30
2022-11-20T10:09:54.958Z,-1.10
2022-11-20T10:11:02.571Z,-1.10
2022-11-20T10:12:34.104Z,-1.00
2022-11-20T10:13:42.008Z,-1.00
2022-11-20T10:15:23.605Z,-1.00
2022-11-20T10:16:58.209Z,-1.10
2022-11-20T10:18:05.175Z,-1.10
2022-11-20T10:19:48.445Z,-1.10
2022-11-20T10:21:10.701Z,-1.00
2022-11-20T10:22:33.545Z,-1.00
2022-11-20T10:24:00.327Z,-0.90
2022-11-20T10:25:22.064Z,-0.80
2022-11-20T10:26:37.908Z,-0.80
2022-11-20T10:27:51.887Z,-0.70
2022-11-20T10:29:40.590Z,-0.70
2022-11-20T10:30:45.014Z,-0.60
2022-11-20T10:31:53.380Z,-0.70
2022-11-20T10:33:09.883Z,-0.70
2022-11-20T10:34:39.650Z,-0.60
2022-11-20T10:35:51.150Z,-0.60
2022-11-20T10:37:04.553Z,-0.50
2022-11-20T10:38:18.166Z,-0.50
2022-11-20T10:39:30.024Z,-0.50
2022-11-20T10:40:46.805Z,-0.50
2022-11-20T10:41:52.858Z,-0.50
2022-11-20T10:42:58.262Z,-0.50
2022-11-20T10:44:06.353Z,-0.50
2022-11-20T10:45:25.909Z,-0.50
2022-11-20T10:46:38.544Z,-0.50
2022-11-20T10:47:40.292Z,-0.50
2022-11-20T10:48:45.295Z,-0.40
2022-11-20T10:49:51.708Z,-0.40
2022-11-20T10:51:15.335Z,-0.40
2022-11-20T10:52:49.121Z,-0.40
2022-11-20T10:54:02.717Z,-0.30
2022-11-20T10:55:18.315Z,-0.20
2022-11-20T10:56:36.654Z,-0.20
2022-11-20T10:57:57.113Z,-0.20
2022-11-20T10:59:34.573Z,-0.20
2022-11-20T11:00:36.562Z,-0.20
2022-11-20T11:01:43.434Z,-0.10
2022-11-20T11:02:49.859Z,-0.10
2022-11-20T11:03:56.142Z,-0.10
2022-11-20T11:04:58.387Z,-0.10
2022-11-20T11:06:32.023Z,-0.10
2022-11-20T11:07:40.301Z,0.00
2022-11-20T11:08:42.400Z,0.00
2022-11-20T11:09:49.953Z,0.10
2022-11-20T11:10:58.341Z,0.20
2022-11-20T11:12:05.755Z,0.20
2022-11-20T11:13:19.841Z,0.30
2022-11-20T11:14:21.573Z,0.40
2022-11-20T11:15:38.010Z,0.50
2022-11-20T11:16:58.646Z,0.50
2022-11-20T11:18:00.426Z,0.50
2022-11-20T11:19:15.766Z,0.40
2022-11-20T11:20:21.092Z,0.40
2022-11-20T11:21:25.540Z,0.40
2022-11-20T11:22:31.109Z,0.40
2022-11-20T11:23:43.776Z,0.40
2022-11-20T11:24:54.356Z,0.40
2022-11-20T11:26:00.606Z,0.40
2022-11-20T11:27:05.594Z,0.50
2022-11-20T11:28:19.771Z,0.50
2022-11-20T11:29:21.737Z,0.60
2022-11-20T11:30:25.210Z,0.60
2022-11-20T11:31:28.279Z,0.60
2022-11-20T11:32:30.038Z,0.70
2022-11-20T11:33:36.851Z,0.70
2022-11-20T11:34:38.699Z,0.70
2022-11-20T11:35:51.113Z,0.70
2022-11-20T11:36:59.520Z,0.70
2022-11-20T11:38:12.772Z,0.60
2022-11-20T11:39:18.459Z,0.60
2022-11-20T11:40:25.419Z,0.60
2022-11-20T11:41:32.921Z,0.70
2022-11-20T11:42:34.838Z,0.70
2022-11-20T11:43:57.077Z,0.70
2022-11-20T11:45:07.126Z,0.70
2022-11-20T11:46:21.123Z,0.60
2022-11-20T11:47:38.312Z,0.60
2022-11-20T11:48:40.306Z,0.60
2022-11-20T11:49:42.315Z,0.60
2022-11-20T11:50:51.021Z,0.60
2022-11-20T11:51:52.704Z,0.60
2022-11-20T11:53:03.130Z,0.70
2022-11-20T11:54:14.871Z,0.70
2022-11-20T11:55:22.540Z,0.70
2022-11-20T11:56:24.897Z,0.70
2022-11-20T11:57:43.773Z,0.60
2022-11-20T11:58:47.700Z,0.60
2022-11-20T12:00:22.135Z,0.60
2022-11-20T12:01:39.908Z,0.60
2022-11-20T12:02:50.282Z,0.60
2022-11-20T12:04:02.760Z,0.60
2022-11-20T12:05:20.671Z,0.60
2022-11-20T12:06:22.734Z,0.60
2022-11-20T12:07:47.621Z,0.60
2022-11-20T12:09:05.165Z,0.60
2022-11-20T12:10:17.895Z,0.70
2022-11-20T12:12:00.325Z,0.70
2022-11-20T12:13:28.440Z,0.70
2022-11-20T12:14:39.039Z,0.70
2022-11-20T12:15:45.894Z,0.70
2022-11-20T12:16:47.920Z,0.70
2022-11-20T12:17:49.927Z,0.70
2022-11-20T12:18:53.595Z,0.70
2022-11-20T12:19:55.343Z,0.70
2022-11-20T12:21:19.121Z,0.60
2022-11-20T12:22:23.968Z,0.60
2022-11-20T12:24:01.164Z,0.60
2022-11-20T12:25:11.078Z,0.60
2022-11-20T12:26:24.321Z,0.60
2022-11-20T12:28:03.704Z,0.60
2022-11-20T12:29:19.974Z,0.70
2022-11-20T12:30:23.201Z,0.70
2022-11-20T12:31:49.877Z,0.70
2022-11-20T12:33:03.260Z,0.70
2022-11-20T12:34:29.736Z,0.70
2022-11-20T12:36:14.776Z,0.70
2022-11-20T12:37:22.581Z,0.70
2022-11-20T12:38:58.099Z,0.60
2022-11-20T12:40:22.809Z,0.70
2022-11-20T12:42:07.961Z,0.60
2022-11-20T12:43:44.761Z,0.70
2022-11-20T12:45:12.422Z,0.70
2022-11-20T12:46:38.901Z,0.70
2022-11-20T12:48:01.754Z,0.70
2022-11-20T12:49:32.774Z,0.70
2022-11-20T12:51:13.971Z,0.70
2022-11-20T12:52:45.040Z,0.70
2022-11-20T12:54:11.683Z,0.70
2022-11-20T12:55:25.481Z,0.70
2022-11-20T12:56:30.311Z,0.70
2022-11-20T12:57:51.952Z,0.70
2022-11-20T12:59:27.801Z,0.70
2022-11-20T13:00:32.656Z,0.70
2022-11-20T13:01:51.341Z,0.70
2022-11-20T13:03:09.094Z,0.70
2022-11-20T13:04:19.905Z,0.70
2022-11-20T13:05:43.602Z,0.80
2022-11-20T13:06:45.953Z,0.80
2022-11-20T13:07:51.550Z,0.80
2022-11-20T13:08:57.421Z,0.80
2022-11-20T13:10:00.370Z,0.80
2022-11-20T13:11:20.102Z,0.80
2022-11-20T13:12:31.752Z,0.80
2022-11-20T13:14:10.997Z,0.90
2022-11-20T13:15:36.429Z,0.90
2022-11-20T13:16:45.683Z,0.90
2022-11-20T13:17:59.286Z,0.90
2022-11-20T13:19:05.889Z,0.90
2022-11-20T13:20:15.363Z,1.00
2022-11-20T13:21:19.792Z,1.00
2022-11-20T13:22:43.471Z,1.00
2022-11-20T13:23:45.299Z,1.00
2022-11-20T13:24:52.872Z,1.00
2022-11-20T13:26:16.798Z,1.00
2022-11-20T13:27:21.718Z,1.00
2022-11-20T13:28:23.429Z,1.00
2022-11-20T13:29:25.168Z,1.00
2022-11-20T13:30:28.756Z,1.00
2022-11-20T13:31:40.737Z,1.00
2022-11-20T13:33:00.799Z,1.10
2022-11-20T13:34:06.457Z,1.00
2022-11-20T13:35:10.197Z,1.00
2022-11-20T13:36:27.063Z,1.00
2022-11-20T13:37:39.396Z,1.00
2022-11-20T13:38:48.448Z,1.00
2022-11-20T13:39:50.195Z,1.00
2022-11-20T13:40:53.252Z,1.00
2022-11-20T13:42:22.883Z,1.00
2022-11-20T13:43:36.374Z,1.00
2022-11-20T13:44:48.196Z,1.10
2022-11-20T13:45:58.047Z,1.10
2022-11-20T13:46:59.893Z,1.00
2022-11-20T13:48:24.748Z,1.00
2022-11-20T13:49:45.241Z,1.00
2022-11-20T13:51:38.217Z,1.00
2022-11-20T13:52:58.815Z,1.00
2022-11-20T13:54:23.244Z,1.00
2022-11-20T13:55:43.065Z,0.90
2022-11-20T13:56:54.723Z,0.90
2022-11-20T13:58:08.511Z,0.90
2022-11-20T13:59:31.261Z,0.90
2022-11-20T14:00:33.115Z,0.90
2022-11-20T14:01:35.821Z,0.90
2022-11-20T14:02:38.073Z,0.80
2022-11-20T14:05:02.985Z,0.80
2022-11-20T14:06:19.621Z,0.80
2022-11-20T14:07:25.150Z,0.70
2022-11-20T14:08:32.342Z,0.70
2022-11-20T14:09:35.359Z,0.70
2022-11-20T14:10:40.169Z,0.60
2022-11-20T14:11:48.894Z,0.60
2022-11-20T14:12:51.837Z,0.60
2022-11-20T14:14:12.197Z,0.50
2022-11-20T14:15:32.207Z,0.50
2022-11-20T14:16:36.772Z,0.50
2022-11-20T14:17:39.183Z,0.50
2022-11-20T14:18:40.914Z,0.40
2022-11-20T14:19:46.278Z,0.50
2022-11-20T14:20:48.414Z,0.40
2022-11-20T14:21:52.620Z,0.50
2022-11-20T14:22:55.564Z,0.50
2022-11-20T14:24:07.424Z,0.40